sensor_id;sensor_type;location;lat;lon;timestamp;P1;durP1;ratioP1;P2;durP2;ratioP2
72584;SDS011;60618;40.084;32.908;2023-04-03T00:00:38;8.23;;;3.13;;
72584;SDS011;60618;40.084;32.908;2023-04-03T00:03:05;9.35;;;3.00;;
72584;SDS011;60618;40.084;32.908;2023-04-03T00:05:32;6.95;;;2.97;;
72584;SDS011;60618;40.084;32.908;2023-04-03T00:07:59;11.50;;;3.38;;
72584;SDS011;60618;40.084;32.908;2023-04-03T00:10:26;7.00;;;3.47;;
72584;SDS011;60618;40.084;32.908;2023-04-03T00:12:52;8.35;;;3.47;;
72584;SDS011;60618;40.084;32.908;2023-04-03T00:15:19;9.48;;;3.30;;
72584;SDS011;60618;40.084;32.908;2023-04-03T00:17:46;8.50;;;3.00;;
72584;SDS011;60618;40.084;32.908;2023-04-03T00:20:13;8.45;;;3.45;;
72584;SDS011;60618;40.084;32.908;2023-04-03T00:22:40;8.87;;;3.30;;
72584;SDS011;60618;40.084;32.908;2023-04-03T00:25:07;9.43;;;3.08;;
72584;SDS011;60618;40.084;32.908;2023-04-03T00:27:38;8.63;;;3.38;;
72584;SDS011;60618;40.084;32.908;2023-04-03T00:30:07;9.05;;;3.15;;
72584;SDS011;60618;40.084;32.908;2023-04-03T00:32:37;6.90;;;3.13;;
72584;SDS011;60618;40.084;32.908;2023-04-03T00:35:04;6.13;;;3.17;;
72584;SDS011;60618;40.084;32.908;2023-04-03T00:37:31;9.00;;;3.03;;
72584;SDS011;60618;40.084;32.908;2023-04-03T00:39:58;7.43;;;2.90;;
72584;SDS011;60618;40.084;32.908;2023-04-03T00:42:25;9.02;;;3.30;;
72584;SDS011;60618;40.084;32.908;2023-04-03T00:47:19;8.43;;;2.80;;
72584;SDS011;60618;40.084;32.908;2023-04-03T00:49:46;7.55;;;2.70;;
72584;SDS011;60618;40.084;32.908;2023-04-03T00:52:14;8.48;;;3.00;;
72584;SDS011;60618;40.084;32.908;2023-04-03T00:54:44;6.97;;;3.13;;
72584;SDS011;60618;40.084;32.908;2023-04-03T00:57:12;9.95;;;2.90;;
72584;SDS011;60618;40.084;32.908;2023-04-03T00:59:43;11.77;;;3.63;;
72584;SDS011;60618;40.084;32.908;2023-04-03T01:02:17;7.88;;;3.10;;
72584;SDS011;60618;40.084;32.908;2023-04-03T01:04:44;9.40;;;3.65;;
72584;SDS011;60618;40.084;32.908;2023-04-03T01:07:12;9.93;;;3.35;;
72584;SDS011;60618;40.084;32.908;2023-04-03T01:09:42;9.57;;;3.95;;
72584;SDS011;60618;40.084;32.908;2023-04-03T01:12:14;6.53;;;2.77;;
72584;SDS011;60618;40.084;32.908;2023-04-03T01:14:44;8.32;;;2.78;;
72584;SDS011;60618;40.084;32.908;2023-04-03T01:20:31;6.95;;;3.03;;
72584;SDS011;60618;40.084;32.908;2023-04-03T01:23:17;10.13;;;3.50;;
72584;SDS011;60618;40.084;32.908;2023-04-03T01:25:53;9.70;;;3.00;;
72584;SDS011;60618;40.084;32.908;2023-04-03T01:28:26;6.40;;;3.00;;
72584;SDS011;60618;40.084;32.908;2023-04-03T01:33:54;9.73;;;3.20;;
72584;SDS011;60618;40.084;32.908;2023-04-03T01:36:26;9.13;;;3.10;;
72584;SDS011;60618;40.084;32.908;2023-04-03T01:38:55;8.43;;;3.20;;
72584;SDS011;60618;40.084;32.908;2023-04-03T01:41:23;7.60;;;3.05;;
72584;SDS011;60618;40.084;32.908;2023-04-03T01:43:50;7.10;;;3.20;;
72584;SDS011;60618;40.084;32.908;2023-04-03T01:46:17;7.88;;;2.90;;
72584;SDS011;60618;40.084;32.908;2023-04-03T01:48:45;9.93;;;3.47;;
72584;SDS011;60618;40.084;32.908;2023-04-03T01:51:12;7.90;;;3.20;;
72584;SDS011;60618;40.084;32.908;2023-04-03T01:53:39;7.25;;;2.95;;
72584;SDS011;60618;40.084;32.908;2023-04-03T01:56:06;11.32;;;3.40;;
72584;SDS011;60618;40.084;32.908;2023-04-03T01:58:33;8.90;;;3.20;;
72584;SDS011;60618;40.084;32.908;2023-04-03T02:01:00;8.43;;;3.25;;
72584;SDS011;60618;40.084;32.908;2023-04-03T02:03:27;8.10;;;3.17;;
72584;SDS011;60618;40.084;32.908;2023-04-03T02:05:54;7.60;;;3.40;;
72584;SDS011;60618;40.084;32.908;2023-04-03T02:08:21;6.93;;;3.45;;
72584;SDS011;60618;40.084;32.908;2023-04-03T02:10:48;8.70;;;3.33;;
72584;SDS011;60618;40.084;32.908;2023-04-03T02:13:16;8.32;;;3.45;;
72584;SDS011;60618;40.084;32.908;2023-04-03T02:15:44;9.70;;;3.50;;
72584;SDS011;60618;40.084;32.908;2023-04-03T02:18:11;12.55;;;4.15;;
72584;SDS011;60618;40.084;32.908;2023-04-03T02:20:39;9.60;;;3.50;;
72584;SDS011;60618;40.084;32.908;2023-04-03T02:23:06;7.63;;;3.45;;
72584;SDS011;60618;40.084;32.908;2023-04-03T02:25:33;10.18;;;3.88;;
72584;SDS011;60618;40.084;32.908;2023-04-03T02:28:03;6.53;;;3.17;;
72584;SDS011;60618;40.084;32.908;2023-04-03T02:30:30;9.23;;;3.50;;
72584;SDS011;60618;40.084;32.908;2023-04-03T02:32:57;9.95;;;3.40;;
72584;SDS011;60618;40.084;32.908;2023-04-03T02:35:24;8.05;;;3.40;;
72584;SDS011;60618;40.084;32.908;2023-04-03T02:37:52;7.97;;;3.70;;
72584;SDS011;60618;40.084;32.908;2023-04-03T02:40:19;7.50;;;3.70;;
72584;SDS011;60618;40.084;32.908;2023-04-03T02:42:46;9.68;;;3.55;;
72584;SDS011;60618;40.084;32.908;2023-04-03T02:45:13;8.38;;;3.75;;
72584;SDS011;60618;40.084;32.908;2023-04-03T02:47:40;10.40;;;3.80;;
72584;SDS011;60618;40.084;32.908;2023-04-03T02:50:07;12.15;;;4.22;;
72584;SDS011;60618;40.084;32.908;2023-04-03T02:52:34;9.50;;;4.30;;
72584;SDS011;60618;40.084;32.908;2023-04-03T02:55:01;11.55;;;4.05;;
72584;SDS011;60618;40.084;32.908;2023-04-03T02:57:28;6.43;;;3.63;;
72584;SDS011;60618;40.084;32.908;2023-04-03T02:59:55;7.07;;;3.38;;
72584;SDS011;60618;40.084;32.908;2023-04-03T03:02:22;8.30;;;3.88;;
72584;SDS011;60618;40.084;32.908;2023-04-03T03:04:49;11.07;;;3.73;;
72584;SDS011;60618;40.084;32.908;2023-04-03T03:07:16;9.50;;;4.18;;
72584;SDS011;60618;40.084;32.908;2023-04-03T03:09:43;9.38;;;4.13;;
72584;SDS011;60618;40.084;32.908;2023-04-03T03:12:10;10.30;;;3.90;;
72584;SDS011;60618;40.084;32.908;2023-04-03T03:14:37;9.45;;;3.90;;
72584;SDS011;60618;40.084;32.908;2023-04-03T03:17:04;9.20;;;4.20;;
72584;SDS011;60618;40.084;32.908;2023-04-03T03:19:30;10.65;;;4.72;;
72584;SDS011;60618;40.084;32.908;2023-04-03T03:21:57;9.32;;;3.78;;
72584;SDS011;60618;40.084;32.908;2023-04-03T03:24:24;7.28;;;2.88;;
72584;SDS011;60618;40.084;32.908;2023-04-03T03:26:51;9.05;;;4.53;;
72584;SDS011;60618;40.084;32.908;2023-04-03T03:29:18;7.70;;;3.30;;
72584;SDS011;60618;40.084;32.908;2023-04-03T03:31:45;8.45;;;4.10;;
72584;SDS011;60618;40.084;32.908;2023-04-03T03:34:12;9.77;;;3.67;;
72584;SDS011;60618;40.084;32.908;2023-04-03T03:36:39;10.00;;;4.13;;
72584;SDS011;60618;40.084;32.908;2023-04-03T03:39:06;8.88;;;3.78;;
72584;SDS011;60618;40.084;32.908;2023-04-03T03:41:33;8.73;;;3.63;;
72584;SDS011;60618;40.084;32.908;2023-04-03T03:44:00;7.90;;;3.80;;
72584;SDS011;60618;40.084;32.908;2023-04-03T03:46:27;9.25;;;3.72;;
72584;SDS011;60618;40.084;32.908;2023-04-03T03:48:54;9.85;;;3.70;;
72584;SDS011;60618;40.084;32.908;2023-04-03T03:51:20;10.82;;;3.53;;
72584;SDS011;60618;40.084;32.908;2023-04-03T03:53:47;8.63;;;3.80;;
72584;SDS011;60618;40.084;32.908;2023-04-03T03:56:14;7.47;;;3.72;;
72584;SDS011;60618;40.084;32.908;2023-04-03T03:58:41;8.95;;;3.95;;
72584;SDS011;60618;40.084;32.908;2023-04-03T04:01:09;10.82;;;4.18;;
72584;SDS011;60618;40.084;32.908;2023-04-03T04:03:36;10.10;;;4.60;;
72584;SDS011;60618;40.084;32.908;2023-04-03T04:06:03;8.93;;;4.10;;
72584;SDS011;60618;40.084;32.908;2023-04-03T04:08:30;10.05;;;4.40;;
72584;SDS011;60618;40.084;32.908;2023-04-03T04:10:57;10.68;;;5.05;;
72584;SDS011;60618;40.084;32.908;2023-04-03T04:13:24;10.77;;;4.60;;
72584;SDS011;60618;40.084;32.908;2023-04-03T04:15:50;11.20;;;4.40;;
72584;SDS011;60618;40.084;32.908;2023-04-03T04:18:17;11.63;;;4.77;;
72584;SDS011;60618;40.084;32.908;2023-04-03T04:20:45;9.02;;;3.42;;
72584;SDS011;60618;40.084;32.908;2023-04-03T04:23:12;5.93;;;2.92;;
72584;SDS011;60618;40.084;32.908;2023-04-03T04:25:39;6.47;;;3.30;;
72584;SDS011;60618;40.084;32.908;2023-04-03T04:28:06;8.68;;;3.90;;
72584;SDS011;60618;40.084;32.908;2023-04-03T04:30:33;7.53;;;3.00;;
72584;SDS011;60618;40.084;32.908;2023-04-03T04:33:00;9.68;;;3.78;;
72584;SDS011;60618;40.084;32.908;2023-04-03T04:35:27;7.78;;;3.10;;
72584;SDS011;60618;40.084;32.908;2023-04-03T04:37:54;9.15;;;3.60;;
72584;SDS011;60618;40.084;32.908;2023-04-03T04:40:21;6.82;;;3.40;;
72584;SDS011;60618;40.084;32.908;2023-04-03T04:42:47;7.20;;;3.23;;
72584;SDS011;60618;40.084;32.908;2023-04-03T04:45:14;7.95;;;3.35;;
72584;SDS011;60618;40.084;32.908;2023-04-03T04:47:41;7.40;;;3.40;;
72584;SDS011;60618;40.084;32.908;2023-04-03T04:50:08;8.05;;;3.53;;
72584;SDS011;60618;40.084;32.908;2023-04-03T04:52:36;9.73;;;4.13;;
72584;SDS011;60618;40.084;32.908;2023-04-03T04:55:03;11.03;;;4.80;;
72584;SDS011;60618;40.084;32.908;2023-04-03T04:57:30;10.77;;;4.85;;
72584;SDS011;60618;40.084;32.908;2023-04-03T04:59:57;13.63;;;4.97;;
72584;SDS011;60618;40.084;32.908;2023-04-03T05:02:24;12.50;;;5.00;;
72584;SDS011;60618;40.084;32.908;2023-04-03T05:04:51;12.30;;;4.78;;
72584;SDS011;60618;40.084;32.908;2023-04-03T05:07:18;10.97;;;4.67;;
72584;SDS011;60618;40.084;32.908;2023-04-03T05:09:44;10.20;;;5.15;;
72584;SDS011;60618;40.084;32.908;2023-04-03T05:12:14;11.80;;;5.40;;
72584;SDS011;60618;40.084;32.908;2023-04-03T05:14:41;11.07;;;5.13;;
72584;SDS011;60618;40.084;32.908;2023-04-03T05:17:13;12.27;;;5.65;;
72584;SDS011;60618;40.084;32.908;2023-04-03T05:19:40;11.63;;;5.17;;
72584;SDS011;60618;40.084;32.908;2023-04-03T05:22:07;14.43;;;6.70;;
72584;SDS011;60618;40.084;32.908;2023-04-03T05:24:34;13.20;;;6.80;;
72584;SDS011;60618;40.084;32.908;2023-04-03T05:27:04;14.13;;;6.80;;
72584;SDS011;60618;40.084;32.908;2023-04-03T05:29:30;14.68;;;7.05;;
72584;SDS011;60618;40.084;32.908;2023-04-03T05:31:57;11.53;;;6.70;;
72584;SDS011;60618;40.084;32.908;2023-04-03T05:34:24;12.65;;;5.53;;
72584;SDS011;60618;40.084;32.908;2023-04-03T05:36:51;13.32;;;4.00;;
72584;SDS011;60618;40.084;32.908;2023-04-03T05:39:18;9.65;;;3.80;;
72584;SDS011;60618;40.084;32.908;2023-04-03T05:41:45;10.07;;;3.67;;
72584;SDS011;60618;40.084;32.908;2023-04-03T05:44:12;8.50;;;3.87;;
72584;SDS011;60618;40.084;32.908;2023-04-03T05:46:39;7.75;;;3.33;;
72584;SDS011;60618;40.084;32.908;2023-04-03T05:49:06;10.05;;;4.25;;
72584;SDS011;60618;40.084;32.908;2023-04-03T05:51:34;8.25;;;3.60;;
72584;SDS011;60618;40.084;32.908;2023-04-03T05:56:51;10.53;;;3.77;;
72584;SDS011;60618;40.084;32.908;2023-04-03T05:59:19;12.18;;;4.57;;
72584;SDS011;60618;40.084;32.908;2023-04-03T06:01:47;10.00;;;4.00;;
72584;SDS011;60618;40.084;32.908;2023-04-03T06:04:14;11.82;;;4.63;;
72584;SDS011;60618;40.084;32.908;2023-04-03T06:07:03;11.55;;;4.70;;
72584;SDS011;60618;40.084;32.908;2023-04-03T06:09:29;10.33;;;4.37;;
72584;SDS011;60618;40.084;32.908;2023-04-03T06:11:57;18.83;;;4.78;;
72584;SDS011;60618;40.084;32.908;2023-04-03T06:14:24;11.82;;;4.68;;
72584;SDS011;60618;40.084;32.908;2023-04-03T06:16:52;10.43;;;4.32;;
72584;SDS011;60618;40.084;32.908;2023-04-03T06:19:20;11.55;;;4.68;;
72584;SDS011;60618;40.084;32.908;2023-04-03T06:21:47;9.67;;;4.30;;
72584;SDS011;60618;40.084;32.908;2023-04-03T06:24:15;10.43;;;4.78;;
72584;SDS011;60618;40.084;32.908;2023-04-03T06:26:43;11.52;;;4.70;;
72584;SDS011;60618;40.084;32.908;2023-04-03T06:29:10;11.98;;;5.45;;
72584;SDS011;60618;40.084;32.908;2023-04-03T06:31:37;11.48;;;5.10;;
72584;SDS011;60618;40.084;32.908;2023-04-03T06:34:04;13.40;;;4.90;;
72584;SDS011;60618;40.084;32.908;2023-04-03T06:36:34;10.40;;;4.80;;
72584;SDS011;60618;40.084;32.908;2023-04-03T06:39:02;12.40;;;5.53;;
72584;SDS011;60618;40.084;32.908;2023-04-03T06:41:29;14.43;;;5.32;;
72584;SDS011;60618;40.084;32.908;2023-04-03T06:43:56;13.18;;;5.63;;
72584;SDS011;60618;40.084;32.908;2023-04-03T06:46:24;12.23;;;5.13;;
72584;SDS011;60618;40.084;32.908;2023-04-03T06:48:52;14.88;;;5.57;;
72584;SDS011;60618;40.084;32.908;2023-04-03T06:51:23;13.05;;;4.90;;
72584;SDS011;60618;40.084;32.908;2023-04-03T06:53:52;11.93;;;4.80;;
72584;SDS011;60618;40.084;32.908;2023-04-03T06:56:20;9.48;;;4.30;;
72584;SDS011;60618;40.084;32.908;2023-04-03T06:58:47;10.40;;;3.60;;
72584;SDS011;60618;40.084;32.908;2023-04-03T07:01:15;10.00;;;3.63;;
72584;SDS011;60618;40.084;32.908;2023-04-03T07:03:43;10.05;;;3.85;;
72584;SDS011;60618;40.084;32.908;2023-04-03T07:06:13;9.25;;;4.20;;
72584;SDS011;60618;40.084;32.908;2023-04-03T07:08:42;7.28;;;3.30;;
72584;SDS011;60618;40.084;32.908;2023-04-03T07:11:10;11.50;;;3.23;;
72584;SDS011;60618;40.084;32.908;2023-04-03T07:13:38;7.82;;;3.20;;
72584;SDS011;60618;40.084;32.908;2023-04-03T07:16:05;10.65;;;4.53;;
72584;SDS011;60618;40.084;32.908;2023-04-03T07:18:33;9.15;;;3.50;;
72584;SDS011;60618;40.084;32.908;2023-04-03T07:21:00;10.57;;;3.67;;
72584;SDS011;60618;40.084;32.908;2023-04-03T07:23:29;9.47;;;3.70;;
72584;SDS011;60618;40.084;32.908;2023-04-03T07:25:55;9.52;;;4.18;;
72584;SDS011;60618;40.084;32.908;2023-04-03T07:28:23;10.35;;;5.10;;
72584;SDS011;60618;40.084;32.908;2023-04-03T07:30:51;13.00;;;5.55;;
72584;SDS011;60618;40.084;32.908;2023-04-03T07:33:20;15.23;;;7.00;;
72584;SDS011;60618;40.084;32.908;2023-04-03T07:35:48;13.27;;;6.60;;
72584;SDS011;60618;40.084;32.908;2023-04-03T07:38:16;16.20;;;6.63;;
72584;SDS011;60618;40.084;32.908;2023-04-03T07:40:50;17.23;;;7.82;;
72584;SDS011;60618;40.084;32.908;2023-04-03T07:43:17;9.82;;;4.35;;
72584;SDS011;60618;40.084;32.908;2023-04-03T07:45:45;10.30;;;3.80;;
72584;SDS011;60618;40.084;32.908;2023-04-03T07:48:13;9.93;;;3.83;;
72584;SDS011;60618;40.084;32.908;2023-04-03T07:50:40;8.20;;;3.63;;
72584;SDS011;60618;40.084;32.908;2023-04-03T07:53:07;9.15;;;3.28;;
72584;SDS011;60618;40.084;32.908;2023-04-03T07:55:35;10.93;;;3.30;;
72584;SDS011;60618;40.084;32.908;2023-04-03T07:58:03;10.45;;;3.40;;
72584;SDS011;60618;40.084;32.908;2023-04-03T08:00:29;9.83;;;3.60;;
72584;SDS011;60618;40.084;32.908;2023-04-03T08:02:56;7.22;;;3.30;;
72584;SDS011;60618;40.084;32.908;2023-04-03T08:05:23;8.80;;;3.13;;
72584;SDS011;60618;40.084;32.908;2023-04-03T08:07:50;8.43;;;2.70;;
72584;SDS011;60618;40.084;32.908;2023-04-03T08:10:17;10.73;;;3.20;;
72584;SDS011;60618;40.084;32.908;2023-04-03T08:12:47;5.87;;;2.67;;
72584;SDS011;60618;40.084;32.908;2023-04-03T08:15:14;5.45;;;2.40;;
72584;SDS011;60618;40.084;32.908;2023-04-03T08:17:41;13.20;;;3.40;;
72584;SDS011;60618;40.084;32.908;2023-04-03T08:20:09;9.27;;;3.47;;
72584;SDS011;60618;40.084;32.908;2023-04-03T08:22:36;12.43;;;3.40;;
72584;SDS011;60618;40.084;32.908;2023-04-03T08:25:03;9.97;;;3.00;;
72584;SDS011;60618;40.084;32.908;2023-04-03T08:27:31;9.68;;;3.22;;
72584;SDS011;60618;40.084;32.908;2023-04-03T08:29:57;7.35;;;3.05;;
72584;SDS011;60618;40.084;32.908;2023-04-03T08:32:24;10.63;;;3.03;;
72584;SDS011;60618;40.084;32.908;2023-04-03T08:34:52;10.10;;;4.07;;
72584;SDS011;60618;40.084;32.908;2023-04-03T08:37:19;11.70;;;3.40;;
72584;SDS011;60618;40.084;32.908;2023-04-03T08:39:46;10.10;;;3.20;;
72584;SDS011;60618;40.084;32.908;2023-04-03T08:42:24;9.52;;;3.30;;
72584;SDS011;60618;40.084;32.908;2023-04-03T08:48:12;9.07;;;2.95;;
72584;SDS011;60618;40.084;32.908;2023-04-03T08:50:50;10.10;;;3.13;;
72584;SDS011;60618;40.084;32.908;2023-04-03T08:53:20;9.50;;;3.28;;
72584;SDS011;60618;40.084;32.908;2023-04-03T08:55:50;9.65;;;3.38;;
72584;SDS011;60618;40.084;32.908;2023-04-03T08:58:29;12.75;;;3.85;;
72584;SDS011;60618;40.084;32.908;2023-04-03T09:03:37;11.10;;;2.77;;
72584;SDS011;60618;40.084;32.908;2023-04-03T09:11:44;9.85;;;2.70;;
72584;SDS011;60618;40.084;32.908;2023-04-03T09:17:00;7.47;;;2.30;;
72584;SDS011;60618;40.084;32.908;2023-04-03T09:22:02;10.52;;;2.60;;
72584;SDS011;60618;40.084;32.908;2023-04-03T09:24:39;7.18;;;2.20;;
72584;SDS011;60618;40.084;32.908;2023-04-03T09:27:10;6.78;;;2.10;;
72584;SDS011;60618;40.084;32.908;2023-04-03T09:29:39;5.37;;;1.80;;
72584;SDS011;60618;40.084;32.908;2023-04-03T09:32:29;5.75;;;1.90;;
72584;SDS011;60618;40.084;32.908;2023-04-03T09:35:02;8.93;;;1.90;;
72584;SDS011;60618;40.084;32.908;2023-04-03T09:37:48;10.20;;;1.95;;
72584;SDS011;60618;40.084;32.908;2023-04-03T09:42:53;7.47;;;1.80;;
72584;SDS011;60618;40.084;32.908;2023-04-03T09:45:31;8.57;;;1.55;;
72584;SDS011;60618;40.084;32.908;2023-04-03T09:48:06;8.20;;;1.80;;
72584;SDS011;60618;40.084;32.908;2023-04-03T09:53:31;6.85;;;1.70;;
72584;SDS011;60618;40.084;32.908;2023-04-03T09:55:59;7.43;;;2.10;;
72584;SDS011;60618;40.084;32.908;2023-04-03T09:58:28;6.50;;;1.90;;
72584;SDS011;60618;40.084;32.908;2023-04-03T10:09:15;7.30;;;1.90;;
72584;SDS011;60618;40.084;32.908;2023-04-03T10:14:28;7.90;;;2.05;;
72584;SDS011;60618;40.084;32.908;2023-04-03T10:17:01;8.15;;;2.10;;
72584;SDS011;60618;40.084;32.908;2023-04-03T10:19:48;7.03;;;1.88;;
72584;SDS011;60618;40.084;32.908;2023-04-03T10:22:50;6.57;;;2.10;;
72584;SDS011;60618;40.084;32.908;2023-04-03T10:25:41;7.93;;;1.95;;
72584;SDS011;60618;40.084;32.908;2023-04-03T10:28:31;8.30;;;1.80;;
72584;SDS011;60618;40.084;32.908;2023-04-03T10:34:06;7.85;;;2.03;;
72584;SDS011;60618;40.084;32.908;2023-04-03T10:42:11;7.07;;;1.90;;
72584;SDS011;60618;40.084;32.908;2023-04-03T10:48:01;9.07;;;2.20;;
72584;SDS011;60618;40.084;32.908;2023-04-03T10:50:39;9.87;;;2.10;;
72584;SDS011;60618;40.084;32.908;2023-04-03T10:56:22;9.60;;;1.98;;
72584;SDS011;60618;40.084;32.908;2023-04-03T10:58:56;10.43;;;2.00;;
72584;SDS011;60618;40.084;32.908;2023-04-03T11:01:31;8.25;;;1.90;;
72584;SDS011;60618;40.084;32.908;2023-04-03T11:04:00;6.63;;;1.90;;
72584;SDS011;60618;40.084;32.908;2023-04-03T11:06:34;6.18;;;1.60;;
72584;SDS011;60618;40.084;32.908;2023-04-03T11:09:07;8.13;;;1.90;;
72584;SDS011;60618;40.084;32.908;2023-04-03T11:11:38;8.65;;;1.88;;
72584;SDS011;60618;40.084;32.908;2023-04-03T11:16:43;8.07;;;1.80;;
72584;SDS011;60618;40.084;32.908;2023-04-03T11:19:20;10.00;;;1.88;;
72584;SDS011;60618;40.084;32.908;2023-04-03T11:22:01;7.07;;;1.75;;
72584;SDS011;60618;40.084;32.908;2023-04-03T11:24:36;7.05;;;1.90;;
72584;SDS011;60618;40.084;32.908;2023-04-03T11:27:17;9.38;;;1.90;;
72584;SDS011;60618;40.084;32.908;2023-04-03T11:29:49;7.17;;;1.80;;
72584;SDS011;60618;40.084;32.908;2023-04-03T11:35:01;8.65;;;1.50;;
72584;SDS011;60618;40.084;32.908;2023-04-03T11:37:33;9.18;;;1.80;;
72584;SDS011;60618;40.084;32.908;2023-04-03T11:40:47;7.30;;;1.75;;
72584;SDS011;60618;40.084;32.908;2023-04-03T11:43:06;7.87;;;1.70;;
72584;SDS011;60618;40.084;32.908;2023-04-03T11:50:50;7.90;;;1.60;;
72584;SDS011;60618;40.084;32.908;2023-04-03T12:01:42;9.90;;;1.70;;
72584;SDS011;60618;40.084;32.908;2023-04-03T12:04:10;7.85;;;1.77;;
72584;SDS011;60618;40.084;32.908;2023-04-03T12:09:21;8.37;;;2.10;;
72584;SDS011;60618;40.084;32.908;2023-04-03T12:11:56;8.65;;;1.75;;
72584;SDS011;60618;40.084;32.908;2023-04-03T12:14:25;6.30;;;1.70;;
72584;SDS011;60618;40.084;32.908;2023-04-03T12:16:53;6.85;;;1.50;;
72584;SDS011;60618;40.084;32.908;2023-04-03T12:19:37;5.45;;;1.70;;
72584;SDS011;60618;40.084;32.908;2023-04-03T12:22:12;9.63;;;1.93;;
72584;SDS011;60618;40.084;32.908;2023-04-03T12:24:47;6.63;;;1.60;;
72584;SDS011;60618;40.084;32.908;2023-04-03T12:27:23;5.78;;;1.75;;
72584;SDS011;60618;40.084;32.908;2023-04-03T12:32:44;6.47;;;1.85;;
72584;SDS011;60618;40.084;32.908;2023-04-03T12:35:39;7.20;;;1.97;;
72584;SDS011;60618;40.084;32.908;2023-04-03T12:44:11;7.97;;;1.83;;
72584;SDS011;60618;40.084;32.908;2023-04-03T12:46:44;10.13;;;2.10;;
72584;SDS011;60618;40.084;32.908;2023-04-03T12:51:46;8.57;;;2.10;;
72584;SDS011;60618;40.084;32.908;2023-04-03T12:57:20;8.45;;;1.90;;
72584;SDS011;60618;40.084;32.908;2023-04-03T12:59:47;8.55;;;2.25;;
72584;SDS011;60618;40.084;32.908;2023-04-03T13:02:24;9.83;;;2.03;;
72584;SDS011;60618;40.084;32.908;2023-04-03T13:04:53;10.07;;;2.00;;
72584;SDS011;60618;40.084;32.908;2023-04-03T13:07:27;7.47;;;1.80;;
72584;SDS011;60618;40.084;32.908;2023-04-03T13:10:13;8.55;;;2.20;;
72584;SDS011;60618;40.084;32.908;2023-04-03T13:12:45;9.07;;;1.60;;
72584;SDS011;60618;40.084;32.908;2023-04-03T13:15:17;7.73;;;1.60;;
72584;SDS011;60618;40.084;32.908;2023-04-03T13:17:44;13.00;;;2.35;;
72584;SDS011;60618;40.084;32.908;2023-04-03T13:20:17;7.28;;;1.60;;
72584;SDS011;60618;40.084;32.908;2023-04-03T13:23:04;8.95;;;1.77;;
72584;SDS011;60618;40.084;32.908;2023-04-03T13:25:34;7.78;;;1.80;;
72584;SDS011;60618;40.084;32.908;2023-04-03T13:28:03;6.23;;;2.10;;
72584;SDS011;60618;40.084;32.908;2023-04-03T13:30:39;7.38;;;1.90;;
72584;SDS011;60618;40.084;32.908;2023-04-03T13:33:24;10.38;;;1.95;;
72584;SDS011;60618;40.084;32.908;2023-04-03T13:38:30;9.45;;;1.77;;
72584;SDS011;60618;40.084;32.908;2023-04-03T13:40:59;7.73;;;1.67;;
72584;SDS011;60618;40.084;32.908;2023-04-03T13:43:29;8.90;;;2.03;;
72584;SDS011;60618;40.084;32.908;2023-04-03T13:54:10;9.03;;;1.60;;
72584;SDS011;60618;40.084;32.908;2023-04-03T13:56:39;8.70;;;1.80;;
72584;SDS011;60618;40.084;32.908;2023-04-03T14:01:44;7.97;;;1.88;;
72584;SDS011;60618;40.084;32.908;2023-04-03T14:04:32;5.95;;;1.50;;
72584;SDS011;60618;40.084;32.908;2023-04-03T14:07:20;9.30;;;1.80;;
72584;SDS011;60618;40.084;32.908;2023-04-03T14:09:47;7.57;;;1.60;;
72584;SDS011;60618;40.084;32.908;2023-04-03T14:14:57;5.65;;;1.67;;
72584;SDS011;60618;40.084;32.908;2023-04-03T14:17:25;8.90;;;1.73;;
72584;SDS011;60618;40.084;32.908;2023-04-03T14:19:53;9.60;;;1.60;;
72584;SDS011;60618;40.084;32.908;2023-04-03T14:22:22;8.52;;;1.77;;
72584;SDS011;60618;40.084;32.908;2023-04-03T14:24:51;10.07;;;1.80;;
72584;SDS011;60618;40.084;32.908;2023-04-03T14:27:20;10.75;;;2.10;;
72584;SDS011;60618;40.084;32.908;2023-04-03T14:29:51;10.77;;;2.00;;
72584;SDS011;60618;40.084;32.908;2023-04-03T14:32:20;5.70;;;1.50;;
72584;SDS011;60618;40.084;32.908;2023-04-03T14:34:49;5.40;;;1.30;;
72584;SDS011;60618;40.084;32.908;2023-04-03T14:37:19;7.50;;;1.65;;
72584;SDS011;60618;40.084;32.908;2023-04-03T14:39:48;5.88;;;1.50;;
72584;SDS011;60618;40.084;32.908;2023-04-03T14:42:18;7.93;;;1.33;;
72584;SDS011;60618;40.084;32.908;2023-04-03T14:44:46;8.23;;;1.57;;
72584;SDS011;60618;40.084;32.908;2023-04-03T14:47:15;5.30;;;1.35;;
72584;SDS011;60618;40.084;32.908;2023-04-03T14:49:57;6.70;;;1.38;;
72584;SDS011;60618;40.084;32.908;2023-04-03T14:52:26;7.47;;;1.55;;
72584;SDS011;60618;40.084;32.908;2023-04-03T14:54:56;6.05;;;1.67;;
72584;SDS011;60618;40.084;32.908;2023-04-03T14:57:24;6.30;;;1.57;;
72584;SDS011;60618;40.084;32.908;2023-04-03T14:59:53;6.97;;;1.48;;
72584;SDS011;60618;40.084;32.908;2023-04-03T15:02:30;7.97;;;1.65;;
72584;SDS011;60618;40.084;32.908;2023-04-03T15:05:00;5.85;;;1.50;;
72584;SDS011;60618;40.084;32.908;2023-04-03T15:07:29;6.43;;;1.60;;
72584;SDS011;60618;40.084;32.908;2023-04-03T15:10:05;5.10;;;1.70;;
72584;SDS011;60618;40.084;32.908;2023-04-03T15:12:45;7.93;;;1.83;;
72584;SDS011;60618;40.084;32.908;2023-04-03T15:15:14;8.07;;;1.65;;
72584;SDS011;60618;40.084;32.908;2023-04-03T15:17:42;8.07;;;1.40;;
72584;SDS011;60618;40.084;32.908;2023-04-03T15:20:21;8.98;;;1.60;;
72584;SDS011;60618;40.084;32.908;2023-04-03T15:22:50;8.87;;;1.67;;
72584;SDS011;60618;40.084;32.908;2023-04-03T15:25:17;6.60;;;1.38;;
72584;SDS011;60618;40.084;32.908;2023-04-03T15:27:44;6.55;;;1.50;;
72584;SDS011;60618;40.084;32.908;2023-04-03T15:30:13;9.18;;;1.60;;
72584;SDS011;60618;40.084;32.908;2023-04-03T15:32:43;6.28;;;1.52;;
72584;SDS011;60618;40.084;32.908;2023-04-03T15:35:10;9.93;;;1.83;;
72584;SDS011;60618;40.084;32.908;2023-04-03T15:37:37;8.10;;;1.80;;
72584;SDS011;60618;40.084;32.908;2023-04-03T15:40:04;8.23;;;2.13;;
72584;SDS011;60618;40.084;32.908;2023-04-03T15:42:32;8.25;;;1.95;;
72584;SDS011;60618;40.084;32.908;2023-04-03T15:44:59;11.50;;;2.00;;
72584;SDS011;60618;40.084;32.908;2023-04-03T15:47:26;6.93;;;1.60;;
72584;SDS011;60618;40.084;32.908;2023-04-03T15:49:54;9.18;;;1.60;;
72584;SDS011;60618;40.084;32.908;2023-04-03T15:52:22;11.07;;;1.50;;
72584;SDS011;60618;40.084;32.908;2023-04-03T15:54:52;11.88;;;2.15;;
72584;SDS011;60618;40.084;32.908;2023-04-03T15:57:19;9.68;;;2.42;;
72584;SDS011;60618;40.084;32.908;2023-04-03T15:59:46;13.57;;;2.40;;
72584;SDS011;60618;40.084;32.908;2023-04-03T16:02:12;11.80;;;2.30;;
72584;SDS011;60618;40.084;32.908;2023-04-03T16:04:40;11.40;;;2.20;;
72584;SDS011;60618;40.084;32.908;2023-04-03T16:07:07;10.70;;;2.33;;
72584;SDS011;60618;40.084;32.908;2023-04-03T16:09:34;8.88;;;2.60;;
72584;SDS011;60618;40.084;32.908;2023-04-03T16:12:03;12.00;;;2.90;;
72584;SDS011;60618;40.084;32.908;2023-04-03T16:14:30;10.25;;;2.70;;
72584;SDS011;60618;40.084;32.908;2023-04-03T16:16:57;10.48;;;2.88;;
72584;SDS011;60618;40.084;32.908;2023-04-03T16:19:26;9.10;;;2.63;;
72584;SDS011;60618;40.084;32.908;2023-04-03T16:21:54;11.43;;;2.90;;
72584;SDS011;60618;40.084;32.908;2023-04-03T16:24:21;9.37;;;2.60;;
72584;SDS011;60618;40.084;32.908;2023-04-03T16:26:49;9.68;;;2.40;;
72584;SDS011;60618;40.084;32.908;2023-04-03T16:29:16;14.23;;;2.85;;
72584;SDS011;60618;40.084;32.908;2023-04-03T16:31:43;10.85;;;2.95;;
72584;SDS011;60618;40.084;32.908;2023-04-03T16:34:10;10.02;;;2.95;;
72584;SDS011;60618;40.084;32.908;2023-04-03T16:36:38;11.63;;;2.83;;